Time;durP1;ratioP1;P1;durP2;ratioP2;P2;SDS_P1;SDS_P2;PMS_P1;PMS_P2;Temp;Humidity;BMP_temperature;BMP_pressure;BME280_temperature;BME280_humidity;BME280_pressure;Samples;Min_cycle;Max_cycle;Signal;HPM_P1;HPM_P2
2020/12/20 00:00:44;;;;;;;20.35;8.70;;;3.90;99.90;;;4.66;83.07;101712.50;5072611;28;20211;-71
2020/12/20 00:03:10;;;;;;;22.20;8.63;;;3.90;99.90;;;4.67;83.03;101701.25;5072975;28;20187;-70
2020/12/20 00:05:37;;;;;;;19.23;7.97;;;4.00;99.90;;;4.69;83.12;101698.69;5072678;28;20588;-71
2020/12/20 00:08:03;;;;;;;20.85;8.18;;;4.00;99.90;;;4.66;82.93;101696.97;5072359;28;20180;-70
2020/12/20 00:10:29;;;;;;;20.90;8.13;;;3.90;99.90;;;4.66;83.00;101693.50;5072012;28;20208;-70
2020/12/20 00:12:55;;;;;;;21.67;8.38;;;3.90;99.90;;;4.63;82.74;101685.72;5072214;28;20576;-70
2020/12/20 00:15:22;;;;;;;20.98;8.18;;;4.00;99.90;;;4.62;83.30;101684.00;5072074;28;20230;-71
2020/12/20 00:17:50;;;;;;;21.20;8.10;;;3.90;99.90;;;4.60;83.08;101694.38;5072123;28;20203;-71
2020/12/20 00:20:17;;;;;;;22.35;8.35;;;3.90;99.90;;;4.61;83.11;101698.69;5071960;28;20196;-71
2020/12/20 00:22:45;;;;;;;20.40;7.70;;;3.90;99.90;;;4.62;83.09;101684.84;5071880;28;20188;-70
2020/12/20 00:25:12;;;;;;;22.17;8.80;;;3.90;99.90;;;4.62;82.97;101684.84;5071773;28;20188;-71
2020/12/20 00:27:39;;;;;;;21.40;8.20;;;3.90;99.90;;;4.62;82.96;101673.63;5072066;28;20207;-70
2020/12/20 00:30:07;;;;;;;20.88;7.78;;;3.90;99.90;;;4.64;83.05;101670.16;5071857;28;20216;-70
2020/12/20 00:32:33;;;;;;;22.70;8.07;;;3.90;99.90;;;4.66;83.14;101668.44;5071782;28;20871;-70
2020/12/20 00:35:00;;;;;;;21.50;8.63;;;4.00;99.90;;;4.67;83.23;101662.38;5087417;28;20204;-71
2020/12/20 00:37:26;;;;;;;20.90;8.32;;;3.90;99.90;;;4.66;82.90;101665.84;5071624;28;20251;-71
2020/12/20 00:39:53;;;;;;;19.80;8.40;;;4.00;99.90;;;4.69;82.79;101668.44;5071185;28;20270;-71
2020/12/20 00:42:20;;;;;;;18.35;8.20;;;4.00;99.90;;;4.69;82.96;101671.03;5069043;28;20264;-71
2020/12/20 00:44:46;;;;;;;19.20;8.15;;;4.00;99.90;;;4.74;82.66;101673.63;5071560;28;20603;-71
2020/12/20 00:47:13;;;;;;;21.38;7.93;;;4.00;99.90;;;4.72;82.45;101676.22;5071287;28;20180;-70
2020/12/20 00:49:39;;;;;;;20.45;7.57;;;4.00;99.90;;;4.70;82.75;101680.56;5069651;28;20580;-70
2020/12/20 00:52:07;;;;;;;18.60;7.75;;;4.00;99.90;;;4.69;82.63;101683.13;5071235;28;20223;-71
2020/12/20 00:54:36;;;;;;;22.27;8.20;;;4.00;99.90;;;4.68;82.71;101697.84;5065322;28;20189;-71
2020/12/20 00:57:04;;;;;;;26.55;8.05;;;4.00;99.90;;;4.70;82.54;101706.47;5085800;28;20564;-70
2020/12/20 00:59:31;;;;;;;20.00;7.63;;;4.00;99.90;;;4.68;82.62;101708.19;5069601;28;20682;-71
2020/12/20 01:02:00;;;;;;;20.77;8.05;;;4.00;99.90;;;4.70;82.43;101703.88;5069703;28;20215;-70
2020/12/20 01:04:29;;;;;;;21.73;9.15;;;4.00;99.90;;;4.71;82.35;101702.13;5068960;28;20673;-71
2020/12/20 01:06:56;;;;;;;18.92;7.63;;;4.00;99.90;;;4.65;82.41;101687.47;5071068;28;20180;-71
2020/12/20 01:09:25;;;;;;;20.42;8.23;;;4.00;99.90;;;4.61;82.26;101698.69;5081378;28;20197;-71
2020/12/20 01:11:52;;;;;;;20.08;8.07;;;3.90;99.90;;;4.58;82.33;101690.03;5059270;28;20710;-71
2020/12/20 01:14:21;;;;;;;19.02;8.23;;;3.90;99.90;;;4.55;82.18;101690.03;5086170;28;20192;-71
2020/12/20 01:16:56;;;;;;;20.65;7.75;;;3.80;99.90;;;4.53;82.61;101689.16;5069190;28;20199;-72
2020/12/20 01:19:23;;;;;;;19.50;8.00;;;3.80;99.90;;;4.49;82.66;101693.44;5069304;28;20203;-70
2020/12/20 01:21:49;;;;;;;23.50;8.93;;;3.80;99.90;;;4.47;82.54;101692.56;5070802;28;20208;-70
2020/12/20 01:24:15;;;;;;;25.37;8.00;;;3.80;99.90;;;4.44;82.77;101695.16;5068847;28;20199;-70
2020/12/20 01:26:42;;;;;;;21.55;8.63;;;3.70;99.90;;;4.40;82.82;101680.50;5069448;28;20275;-69
2020/12/20 01:29:10;;;;;;;21.70;7.63;;;3.70;99.90;;;4.41;82.86;101689.97;5069284;28;20232;-69
2020/12/20 01:31:37;;;;;;;19.70;7.93;;;3.70;99.90;;;4.41;83.06;101695.16;5069444;28;20563;-70
2020/12/20 01:34:15;;;;;;;20.73;8.53;;;3.70;99.90;;;4.42;82.95;101680.50;5068521;28;20279;-70
2020/12/20 01:36:42;;;;;;;21.57;7.87;;;3.70;99.90;;;4.42;82.96;101685.66;5069356;28;20567;-70
2020/12/20 01:39:09;;;;;;;21.00;8.35;;;3.70;99.90;;;4.42;82.95;101690.84;5070602;28;20183;-70
2020/12/20 01:41:35;;;;;;;23.17;8.73;;;3.70;99.90;;;4.42;83.14;101681.34;5068634;28;20200;-70
2020/12/20 01:44:03;;;;;;;22.43;8.47;;;3.70;99.90;;;4.43;82.85;101682.22;5069308;28;20251;-70
2020/12/20 01:46:43;;;;;;;22.03;8.27;;;3.70;99.90;;;4.43;82.79;101672.72;5069479;28;20283;-70
2020/12/20 01:49:13;;;;;;;21.05;8.35;;;3.70;99.90;;;4.45;82.91;101680.50;5068990;28;20262;-69
2020/12/20 01:51:40;;;;;;;21.30;7.83;;;3.70;99.90;;;4.43;82.96;101683.09;5069389;28;20212;-70
2020/12/20 01:54:11;;;;;;;20.52;8.10;;;3.70;99.90;;;4.42;82.78;101691.69;5069373;28;20287;-69
2020/12/20 01:56:41;;;;;;;19.40;7.43;;;3.70;99.90;;;4.42;82.69;101685.66;5069213;28;20223;-69
2020/12/20 01:59:18;;;;;;;18.40;7.55;;;3.70;99.90;;;4.41;82.79;101684.78;5068985;28;20286;-69
2020/12/20 02:01:52;;;;;;;21.08;8.68;;;3.70;99.90;;;4.40;82.58;101677.03;5069146;28;20235;-70
2020/12/20 02:04:28;;;;;;;21.70;8.55;;;3.70;99.90;;;4.37;82.72;101682.19;5069331;28;20188;-69
2020/12/20 02:06:56;;;;;;;21.90;8.17;;;3.70;99.90;;;4.37;82.87;101677.88;5069447;28;20196;-70
2020/12/20 02:09:26;;;;;;;22.17;8.50;;;3.70;99.90;;;4.37;82.90;101677.88;5069724;28;20644;-69
2020/12/20 02:11:52;;;;;;;20.10;8.20;;;3.70;99.90;;;4.41;83.05;101670.97;5073918;28;20302;-70
2020/12/20 02:14:22;;;;;;;21.98;8.30;;;3.70;99.90;;;4.41;82.57;101677.03;5072381;28;20287;-70
2020/12/20 02:16:57;;;;;;;19.88;8.05;;;3.70;99.90;;;4.38;82.67;101671.84;5072925;28;20218;-70
2020/12/20 02:19:24;;;;;;;22.00;8.13;;;3.70;99.90;;;4.36;82.83;101678.75;5072614;28;20287;-70
2020/12/20 02:22:08;;;;;;;19.20;7.63;;;3.70;99.90;;;4.37;82.99;101680.44;5072881;28;20208;-70
2020/12/20 02:24:35;;;;;;;22.53;8.50;;;3.70;99.90;;;4.39;82.81;101672.69;5072852;28;20189;-69
2020/12/20 02:27:09;;;;;;;20.73;7.40;;;3.70;99.90;;;4.42;82.82;101677.91;5072597;28;20192;-70
2020/12/20 02:29:44;;;;;;;18.48;7.90;;;3.80;99.90;;;4.40;82.80;101675.31;5072330;28;20214;-69
2020/12/20 02:32:10;;;;;;;19.27;7.57;;;3.70;99.90;;;4.39;82.44;101673.56;5072274;28;20204;-69
2020/12/20 02:34:38;;;;;;;23.08;8.30;;;3.70;99.90;;;4.38;82.47;101670.97;5072518;28;20192;-69
2020/12/20 02:37:05;;;;;;;20.33;7.90;;;3.70;99.90;;;4.39;82.90;101670.09;5072488;28;20188;-70
2020/12/20 02:39:46;;;;;;;19.37;7.73;;;3.70;99.90;;;4.39;82.50;101668.38;5072204;28;20680;-69
2020/12/20 02:42:12;;;;;;;23.70;8.13;;;3.70;99.90;;;4.40;82.33;101672.72;5071234;28;20204;-69
2020/12/20 02:44:43;;;;;;;19.80;7.93;;;3.70;99.90;;;4.39;82.34;101663.19;5073335;28;20192;-69
2020/12/20 02:47:10;;;;;;;21.88;8.38;;;3.70;99.90;;;4.38;82.55;101669.25;5072103;28;20261;-69
2020/12/20 02:49:38;;;;;;;22.67;8.97;;;3.70;99.90;;;4.37;82.40;101662.31;5071982;28;20212;-69
2020/12/20 02:52:14;;;;;;;23.63;8.27;;;3.70;99.90;;;4.38;82.51;101658.88;5088925;28;20704;-70
2020/12/20 02:54:40;;;;;;;21.70;8.50;;;3.70;99.90;;;4.35;82.38;101664.06;5072103;28;20192;-69
2020/12/20 02:57:14;;;;;;;23.13;7.90;;;3.70;99.90;;;4.38;82.22;101660.59;5071907;28;20188;-69
2020/12/20 02:59:46;;;;;;;21.80;8.18;;;3.70;99.90;;;4.37;82.27;101667.50;5071819;28;20334;-69
2020/12/20 03:02:13;;;;;;;20.50;7.80;;;3.70;99.90;;;4.39;82.46;101665.78;5072008;28;20261;-69
2020/12/20 03:04:42;;;;;;;22.83;8.52;;;3.70;99.90;;;4.39;82.32;101668.38;5073194;28;20187;-69
2020/12/20 03:07:08;;;;;;;23.45;8.95;;;3.70;99.90;;;4.39;82.32;101665.78;5073309;28;20187;-69
2020/12/20 03:09:36;;;;;;;22.20;8.33;;;3.70;99.90;;;4.37;82.47;101667.50;5071495;28;20218;-69
2020/12/20 03:12:02;;;;;;;20.25;8.15;;;3.70;99.90;;;4.37;82.42;101670.09;5088492;28;20583;-69
2020/12/20 03:14:31;;;;;;;22.00;9.02;;;3.70;99.90;;;4.36;82.58;101660.59;5076231;28;20204;-69
2020/12/20 03:17:00;;;;;;;24.10;8.55;;;3.70;99.90;;;4.38;82.21;101664.06;5071000;28;20188;-70
2020/12/20 03:19:26;;;;;;;20.30;7.55;;;3.70;99.90;;;4.38;82.04;101660.59;5071167;28;20246;-69
2020/12/20 03:21:56;;;;;;;21.40;8.35;;;3.70;99.90;;;4.38;82.36;101663.19;5070361;28;20655;-70
2020/12/20 03:24:54;;;;;;;23.38;6.80;;;3.70;99.90;;;4.37;82.20;101661.47;5069152;28;20201;-70
2020/12/20 03:27:36;;;;;;;24.00;8.30;;;3.70;99.90;;;4.36;82.34;101660.59;5071554;28;20275;-69
2020/12/20 03:30:21;;;;;;;20.15;7.70;;;3.70;99.90;;;4.34;82.35;101659.72;5071144;28;20587;-69
2020/12/20 03:33:12;;;;;;;20.55;8.52;;;3.70;99.90;;;4.35;82.29;101658.00;5071247;28;20211;-69
2020/12/20 03:35:54;;;;;;;23.90;9.10;;;3.70;99.90;;;4.36;82.34;101668.38;5071477;28;20665;-70
2020/12/20 03:38:20;;;;;;;24.37;8.87;;;3.70;99.90;;;4.37;82.41;101667.50;5071298;28;20184;-69
2020/12/20 03:40:48;;;;;;;23.10;8.80;;;3.70;99.90;;;4.46;82.33;101672.72;5088037;28;20226;-70
2020/12/20 03:43:17;;;;;;;21.50;8.90;;;3.80;99.90;;;4.57;82.17;101660.66;5070276;28;20188;-69
2020/12/20 03:45:50;;;;;;;19.60;7.87;;;3.90;99.90;;;4.67;82.26;101662.38;5071044;28;20184;-69
2020/12/20 03:48:24;;;;;;;21.97;8.37;;;4.00;99.90;;;4.72;81.67;101676.22;5070871;28;20268;-70
2020/12/20 03:50:50;;;;;;;20.73;8.40;;;4.00;99.90;;;4.70;81.33;101667.59;5070979;28;20223;-69
2020/12/20 03:53:16;;;;;;;19.67;7.90;;;4.00;99.90;;;4.68;81.20;101665.84;5070829;28;20282;-69
2020/12/20 03:55:53;;;;;;;19.80;8.10;;;4.00;99.90;;;4.67;81.34;101666.72;5087851;28;20214;-69
2020/12/20 03:58:19;;;;;;;23.05;8.68;;;4.00;99.90;;;4.67;81.16;101664.97;5071723;28;20621;-70
2020/12/20 04:00:46;;;;;;;24.15;9.38;;;4.00;99.90;;;4.66;81.33;101668.44;5087626;28;20215;-69
2020/12/20 04:03:22;;;;;;;21.30;8.45;;;4.00;99.90;;;4.67;81.11;101669.31;5083655;28;20200;-69
2020/12/20 04:05:48;;;;;;;21.70;9.15;;;4.00;99.90;;;4.66;81.41;101681.41;5087346;28;20196;-70
2020/12/20 04:08:15;;;;;;;20.95;8.90;;;4.00;99.90;;;4.66;81.46;101664.97;5070496;28;20219;-69
2020/12/20 04:10:54;;;;;;;22.42;8.48;;;4.00;99.90;;;4.67;81.20;101669.31;5070845;28;20230;-68
2020/12/20 04:13:21;;;;;;;20.40;8.38;;;4.00;99.90;;;4.67;81.38;101670.16;5071604;28;20206;-69
2020/12/20 04:15:47;;;;;;;20.57;8.07;;;4.00;99.90;;;4.68;81.34;101674.50;5070732;28;20218;-70
2020/12/20 04:18:13;;;;;;;19.37;8.23;;;4.00;99.90;;;4.66;81.27;101671.03;5070336;28;20234;-70
2020/12/20 04:20:42;;;;;;;20.00;7.93;;;4.00;99.90;;;4.68;80.87;101673.63;5070478;28;20200;-69
2020/12/20 04:23:08;;;;;;;19.05;8.35;;;4.00;99.90;;;4.70;81.22;101672.78;5070821;28;20222;-69
2020/12/20 04:25:45;;;;;;;22.93;8.70;;;4.00;99.90;;;4.73;80.83;101677.09;5070757;28;20220;-69
2020/12/20 04:28:38;;;;;;;22.17;8.95;;;4.00;99.90;;;4.71;80.54;101663.25;5044990;28;20192;-69
2020/12/20 04:31:14;;;;;;;22.38;8.60;;;4.00;99.90;;;4.65;80.68;101668.44;5070183;28;20250;-69
2020/12/20 04:33:42;;;;;;;19.45;8.00;;;3.90;99.90;;;4.58;80.75;101661.53;5077921;28;20620;-69
2020/12/20 04:36:16;;;;;;;22.13;8.93;;;3.90;99.90;;;4.53;81.13;101669.28;5079879;28;20195;-70
2020/12/20 04:38:43;;;;;;;22.08;8.15;;;3.80;99.90;;;4.53;81.30;101663.22;5070320;28;20188;-69
2020/12/20 04:41:10;;;;;;;22.75;8.88;;;3.80;99.90;;;4.52;81.27;101666.69;5070422;28;20299;-69
2020/12/20 04:43:39;;;;;;;20.95;8.18;;;3.80;99.90;;;4.49;81.32;101656.31;5065983;28;20192;-69
2020/12/20 04:46:06;;;;;;;20.65;8.45;;;3.80;99.90;;;4.45;81.32;101660.63;5086730;28;20184;-70
2020/12/20 04:48:53;;;;;;;22.83;7.83;;;3.80;99.90;;;4.42;81.33;101658.00;5070388;28;20207;-69
2020/12/20 04:51:21;;;;;;;21.77;7.68;;;3.70;99.90;;;4.41;81.79;101661.47;5071265;28;20219;-70
2020/12/20 04:53:51;;;;;;;20.77;8.33;;;3.70;99.90;;;4.38;81.75;101663.19;5070127;28;20199;-70
2020/12/20 04:56:28;;;;;;;20.97;9.37;;;3.60;99.90;;;4.31;81.76;101654.53;5070407;28;20274;-70
2020/12/20 04:59:01;;;;;;;21.63;9.03;;;3.60;99.90;;;4.29;82.15;101660.56;5069883;28;20183;-69
2020/12/20 05:01:34;;;;;;;21.98;8.45;;;3.60;99.90;;;4.29;82.17;101660.56;5070254;28;20223;-69
2020/12/20 05:04:00;;;;;;;21.20;8.55;;;3.60;99.90;;;4.30;82.04;101662.31;5087018;28;20199;-70
2020/12/20 05:06:30;;;;;;;22.20;7.67;;;3.60;99.90;;;4.27;82.16;101660.56;5086810;28;20289;-69
2020/12/20 05:09:10;;;;;;;21.33;8.32;;;3.60;99.90;;;4.25;82.41;101661.44;5069214;28;20261;-69
2020/12/20 05:11:43;;;;;;;27.90;9.13;;;3.60;99.90;;;4.24;82.45;101657.97;5069755;28;20216;-70
2020/12/20 05:14:15;;;;;;;23.23;9.53;;;3.50;99.90;;;4.22;82.21;101657.09;5069502;28;20207;-69
2020/12/20 05:16:57;;;;;;;22.33;8.60;;;3.50;99.90;;;4.20;82.61;101658.84;5069707;28;20207;-69
2020/12/20 05:19:31;;;;;;;22.50;8.50;;;3.50;99.90;;;4.22;82.65;101664.03;5068409;28;20229;-69
2020/12/20 05:22:15;;;;;;;21.70;8.93;;;3.50;99.90;;;4.24;82.70;101659.69;5069441;28;20200;-69
2020/12/20 05:24:44;;;;;;;26.17;9.80;;;3.50;99.90;;;4.24;82.53;101663.16;5068995;28;20196;-70
2020/12/20 05:27:24;;;;;;;24.63;9.07;;;3.50;99.90;;;4.22;82.35;101656.25;5069499;28;20603;-70
2020/12/20 05:29:51;;;;;;;21.63;9.20;;;3.50;99.90;;;4.16;82.35;101672.63;5069247;28;20221;-70
2020/12/20 05:32:27;;;;;;;20.23;8.57;;;3.50;99.90;;;4.07;82.32;101662.22;5069377;28;20222;-69
2020/12/20 05:35:04;;;;;;;24.00;9.70;;;3.40;99.90;;;4.03;82.62;101669.97;5069629;28;20216;-69
2020/12/20 05:37:34;;;;;;;24.03;9.17;;;3.30;99.90;;;4.00;83.18;101668.25;5068589;28;20192;-69
2020/12/20 05:40:26;;;;;;;21.80;8.97;;;3.30;99.90;;;4.01;83.10;101672.56;5061929;28;20203;-69
2020/12/20 05:43:00;;;;;;;23.30;9.47;;;3.30;99.90;;;3.99;83.15;101668.22;5086183;28;20639;-69
2020/12/20 05:45:30;;;;;;;23.63;9.27;;;3.30;99.90;;;3.97;83.20;101686.34;5072108;28;20183;-69
2020/12/20 05:48:17;;;;;;;21.20;8.87;;;3.30;99.90;;;3.94;82.88;101690.63;5073173;28;20203;-70
2020/12/20 05:50:54;;;;;;;22.57;9.40;;;3.20;99.90;;;3.88;83.33;101691.47;5072367;28;20230;-70
2020/12/20 05:53:27;;;;;;;23.13;9.47;;;3.20;99.90;;;3.84;83.14;101684.53;5073743;28;20196;-70
2020/12/20 05:55:55;;;;;;;21.27;8.97;;;3.10;99.90;;;3.80;83.54;101699.19;5074934;28;20184;-70
2020/12/20 05:58:22;;;;;;;21.63;9.60;;;3.10;99.90;;;3.77;83.67;101694.00;5074565;28;20188;-70
2020/12/20 06:00:49;;;;;;;23.37;9.43;;;3.00;99.90;;;3.79;83.58;101704.34;5074496;28;20208;-69
2020/12/20 06:03:16;;;;;;;23.10;10.00;;;3.00;99.90;;;3.78;83.41;101703.47;5074609;28;20656;-69
2020/12/20 06:05:45;;;;;;;27.13;9.80;;;3.10;99.90;;;3.76;83.59;101694.00;5074252;28;20188;-69
2020/12/20 06:08:13;;;;;;;24.57;10.23;;;3.00;99.90;;;3.72;83.70;101694.81;5074264;28;20180;-69
2020/12/20 06:10:45;;;;;;;23.07;8.83;;;3.00;99.90;;;3.72;83.76;101697.41;5074157;28;20600;-69
2020/12/20 06:13:17;;;;;;;30.87;10.53;;;3.00;99.90;;;3.76;83.96;101701.75;5074126;28;20176;-70
2020/12/20 06:15:44;;;;;;;24.00;9.80;;;3.00;99.90;;;3.74;83.77;101696.56;5073637;28;20706;-69
2020/12/20 06:18:14;;;;;;;21.90;9.80;;;3.00;99.90;;;3.70;83.70;101689.63;5074112;28;20641;-69
2020/12/20 06:20:55;;;;;;;22.47;9.53;;;3.00;99.90;;;3.71;83.73;101695.69;5073861;28;20211;-69
2020/12/20 06:23:25;;;;;;;24.10;9.43;;;3.00;99.90;;;3.71;84.08;101693.09;5067832;28;20204;-69
2020/12/20 06:25:54;;;;;;;21.80;9.47;;;2.90;99.90;;;3.69;83.83;101695.69;5074026;28;20625;-69
2020/12/20 06:28:25;;;;;;;25.13;9.07;;;2.90;99.90;;;3.65;84.02;101695.66;5073734;28;20196;-69
2020/12/20 06:30:52;;;;;;;29.80;11.07;;;2.90;99.90;;;3.60;84.09;101689.59;5073913;28;20278;-69
2020/12/20 06:33:36;;;;;;;23.90;9.33;;;2.80;99.90;;;3.61;84.13;101693.91;5073956;28;20283;-69
2020/12/20 06:36:08;;;;;;;23.23;9.83;;;2.80;99.90;;;3.58;84.13;101691.31;5072659;28;20245;-70
2020/12/20 06:38:34;;;;;;;24.90;9.57;;;2.80;99.90;;;3.53;84.42;101699.00;5073730;28;20191;-69
2020/12/20 06:41:01;;;;;;;25.37;8.27;;;2.80;99.90;;;3.51;84.34;101703.34;5073897;28;20251;-70
2020/12/20 06:43:31;;;;;;;26.00;10.23;;;2.80;99.90;;;3.52;84.49;101699.00;5073753;28;20184;-69
2020/12/20 06:45:58;;;;;;;26.40;10.37;;;2.80;99.90;;;3.48;84.11;101694.69;5072332;28;20192;-70
2020/12/20 06:48:34;;;;;;;26.80;9.97;;;2.70;99.90;;;3.45;84.48;101694.66;5073354;28;20192;-70
2020/12/20 06:51:02;;;;;;;27.70;9.97;;;2.70;99.90;;;3.47;84.39;101696.41;5072220;28;20789;-70
2020/12/20 06:53:49;;;;;;;24.30;9.33;;;2.70;99.90;;;3.44;84.67;101698.09;5073370;28;20188;-69
2020/12/20 06:56:19;;;;;;;25.53;9.43;;;2.70;99.90;;;3.42;84.64;101694.63;5071997;28;20625;-69
2020/12/20 06:58:47;;;;;;;25.23;10.00;;;2.70;99.90;;;3.41;84.71;101703.25;5073087;28;20652;-70
2020/12/20 07:01:35;;;;;;;25.50;9.20;;;2.70;99.90;;;3.45;84.83;101699.84;5073295;28;20581;-69
2020/12/20 07:04:03;;;;;;;25.43;9.63;;;2.70;99.90;;;3.44;84.73;101698.09;5073546;28;20188;-69
2020/12/20 07:06:29;;;;;;;27.10;10.73;;;2.70;99.90;;;3.46;84.89;101701.56;5073020;28;20192;-69
2020/12/20 07:08:59;;;;;;;27.30;11.37;;;2.70;99.90;;;3.49;84.78;101693.81;5072816;28;20214;-70
2020/12/20 07:11:28;;;;;;;25.60;10.00;;;2.70;99.90;;;3.44;84.51;101701.56;5071440;28;20232;-69
2020/12/20 07:13:56;;;;;;;24.37;9.80;;;2.70;99.90;;;3.44;84.83;101695.50;5072773;28;20184;-70
2020/12/20 07:16:25;;;;;;;26.20;10.30;;;2.70;99.90;;;3.49;84.81;101696.41;5073098;28;20203;-70
2020/12/20 07:18:54;;;;;;;23.23;9.63;;;2.70;99.90;;;3.50;84.79;101701.59;5071843;28;20206;-70
2020/12/20 07:21:46;;;;;;;25.97;10.30;;;2.70;99.90;;;3.50;84.51;101703.31;5072963;28;20699;-68
2020/12/20 07:24:19;;;;;;;29.90;10.70;;;2.70;99.90;;;3.45;84.45;101711.03;5072911;28;20649;-69
2020/12/20 07:26:48;;;;;;;25.60;10.17;;;2.70;99.90;;;3.43;84.65;101707.56;5072953;28;20586;-69
2020/12/20 07:29:15;;;;;;;27.13;10.43;;;2.70;99.90;;;3.44;84.79;101718.78;5088115;28;20569;-69
2020/12/20 07:31:42;;;;;;;25.03;10.83;;;2.70;99.90;;;3.44;84.74;101721.38;5071152;28;20224;-70
2020/12/20 07:34:09;;;;;;;30.23;10.40;;;2.70;99.90;;;3.46;84.80;101723.13;5071117;28;20302;-69
2020/12/20 07:36:38;;;;;;;27.03;10.30;;;2.70;99.90;;;3.47;84.90;101713.63;5072669;28;20672;-70
2020/12/20 07:39:05;;;;;;;30.27;12.13;;;2.70;99.90;;;3.45;84.82;101716.19;5072365;28;20188;-70
2020/12/20 07:41:32;;;;;;;29.43;11.13;;;2.70;99.90;;;3.49;84.88;101725.72;5088007;28;20216;-69
2020/12/20 07:44:04;;;;;;;24.97;11.17;;;2.70;99.90;;;3.52;84.77;101730.03;5072479;28;20184;-69
2020/12/20 07:46:32;;;;;;;28.00;11.07;;;2.80;99.90;;;3.57;84.63;101715.41;5072596;28;20192;-69
2020/12/20 07:49:04;;;;;;;26.93;10.93;;;2.80;99.90;;;3.60;84.57;101723.22;5071830;28;20203;-69
2020/12/20 07:51:30;;;;;;;30.80;11.20;;;2.80;99.90;;;3.61;84.53;101717.19;5071349;28;20328;-69
2020/12/20 07:53:59;;;;;;;27.17;10.27;;;2.80;99.90;;;3.63;84.52;101725.84;5072298;28;20637;-69
2020/12/20 07:56:27;;;;;;;28.60;10.87;;;2.90;99.90;;;3.64;84.53;101733.59;5072276;28;20653;-69
2020/12/20 07:58:57;;;;;;;26.03;10.80;;;2.90;99.90;;;3.65;84.53;101729.31;5071908;28;20645;-69
2020/12/20 08:01:24;;;;;;;31.20;11.93;;;2.90;99.90;;;3.64;84.36;101728.44;5072122;28;20211;-69
2020/12/20 08:04:03;;;;;;;28.37;10.97;;;2.90;99.90;;;3.65;84.39;101737.06;5072417;28;20529;-69
2020/12/20 08:06:30;;;;;;;28.43;11.73;;;2.90;99.90;;;3.67;84.51;101740.50;5071977;28;20532;-69
2020/12/20 08:09:05;;;;;;;31.50;11.27;;;2.90;99.90;;;3.70;84.34;101741.41;5071212;28;20573;-69
2020/12/20 08:11:32;;;;;;;28.60;11.00;;;3.00;99.90;;;3.71;84.48;101734.50;5071859;28;20250;-69
2020/12/20 08:14:03;;;;;;;27.60;11.80;;;3.00;99.90;;;3.71;84.20;101739.69;5071658;28;20250;-69
2020/12/20 08:16:33;;;;;;;29.73;10.40;;;3.00;99.90;;;3.70;84.15;101743.97;5072098;28;20184;-69
2020/12/20 08:19:04;;;;;;;30.53;11.87;;;3.00;99.90;;;3.71;84.15;101734.50;5071675;28;20234;-69
2020/12/20 08:21:43;;;;;;;25.77;10.53;;;3.00;99.90;;;3.69;84.17;101736.22;5070116;28;20262;-69
2020/12/20 08:24:12;;;;;;;30.10;12.07;;;3.00;99.90;;;3.65;84.39;101730.16;5071675;28;20265;-69
2020/12/20 08:26:40;;;;;;;30.57;11.73;;;3.00;99.90;;;3.70;84.42;101732.78;5071565;28;20183;-69
2020/12/20 08:29:07;;;;;;;23.43;10.43;;;2.90;99.90;;;3.76;84.38;101748.34;5071408;28;20188;-69
2020/12/20 08:31:35;;;;;;;26.87;11.57;;;3.00;99.90;;;3.78;84.15;101741.47;5070023;28;20223;-69
2020/12/20 08:34:12;;;;;;;28.20;11.03;;;3.00;99.90;;;3.80;84.07;101740.59;5071531;28;20192;-69
2020/12/20 08:36:43;;;;;;;27.08;11.27;;;3.10;99.90;;;3.80;84.24;101725.06;5070152;28;20253;-69
2020/12/20 08:39:09;;;;;;;31.00;11.53;;;3.00;99.90;;;3.82;83.89;101727.66;5072904;28;20566;-68
2020/12/20 08:41:36;;;;;;;32.37;11.80;;;3.10;99.90;;;3.83;83.79;101739.78;5070065;28;20215;-68
2020/12/20 08:44:05;;;;;;;36.37;13.03;;;3.10;99.90;;;3.79;83.84;101738.00;5071336;28;20188;-69
2020/12/20 08:46:33;;;;;;;31.50;12.40;;;3.00;99.90;;;3.74;84.10;101743.16;5071261;28;20181;-69
2020/12/20 08:49:18;;;;;;;33.80;12.07;;;3.10;99.90;;;3.75;84.10;101746.63;5071109;28;20188;-69
2020/12/20 08:51:46;;;;;;;30.20;11.93;;;3.10;99.90;;;3.76;84.20;101753.50;5082523;28;20286;-69
2020/12/20 08:54:22;;;;;;;28.77;11.73;;;3.10;99.90;;;3.76;84.06;101750.94;5071123;28;20203;-68
2020/12/20 08:56:57;;;;;;;28.17;11.53;;;3.10;99.90;;;3.82;84.35;101751.84;5069833;28;20191;-70
2020/12/20 08:59:28;;;;;;;31.67;11.27;;;3.10;99.90;;;3.87;84.30;101746.69;5070963;28;20187;-69
2020/12/20 09:01:55;;;;;;;28.08;10.93;;;3.20;99.90;;;3.90;84.16;101745.84;5086876;28;20219;-70
2020/12/20 09:04:22;;;;;;;31.80;12.67;;;3.20;99.90;;;3.94;84.17;101743.28;5071302;28;20233;-69
2020/12/20 09:07:07;;;;;;;35.67;12.37;;;3.20;99.90;;;4.00;84.01;101743.31;5070995;28;20594;-69
2020/12/20 09:09:35;;;;;;;28.13;10.67;;;3.30;99.90;;;4.06;83.89;101735.59;5070840;28;20660;-68
2020/12/20 09:12:20;;;;;;;28.00;11.27;;;3.40;99.90;;;4.14;83.58;101733.00;5070723;28;20238;-69
2020/12/20 09:15:06;;;;;;;29.17;11.27;;;3.40;99.90;;;4.14;83.14;101731.31;5067342;28;20196;-68
2020/12/20 09:17:34;;;;;;;31.77;11.27;;;3.50;99.90;;;4.15;83.36;101724.41;5086745;28;20570;-69
2020/12/20 09:20:04;;;;;;;29.23;11.60;;;3.50;99.90;;;4.15;83.11;101729.59;5070616;28;20556;-69
2020/12/20 09:22:46;;;;;;;27.88;11.27;;;3.50;99.90;;;4.15;83.12;101733.06;5071125;28;20214;-69
2020/12/20 09:25:16;;;;;;;26.33;11.33;;;3.50;99.90;;;4.18;83.13;101725.28;5069573;28;20660;-69
2020/12/20 09:27:56;;;;;;;31.60;12.17;;;3.50;99.90;;;4.23;82.77;101727.88;5069608;28;20188;-69
2020/12/20 09:30:43;;;;;;;26.95;10.40;;;3.50;99.90;;;4.25;82.74;101724.47;5070641;28;20254;-69
2020/12/20 09:33:26;;;;;;;26.80;10.37;;;3.60;99.90;;;4.29;82.34;101720.13;5071099;28;20728;-69
2020/12/20 09:36:00;;;;;;;28.42;11.43;;;3.60;99.90;;;4.31;82.50;101727.06;5070889;28;20188;-69
2020/12/20 09:38:30;;;;;;;28.13;11.53;;;3.60;99.90;;;4.32;82.36;101726.19;5070426;28;20842;-69
2020/12/20 09:41:07;;;;;;;30.70;11.80;;;3.70;99.90;;;4.34;82.26;101728.78;5070564;28;20204;-69
2020/12/20 09:43:34;;;;;;;28.97;11.67;;;3.70;99.90;;;4.34;82.17;101719.31;5069722;28;20196;-68
2020/12/20 09:46:01;;;;;;;27.75;11.13;;;3.70;99.90;;;4.38;82.45;101707.22;5069385;28;20188;-69
2020/12/20 09:48:29;;;;;;;25.45;10.82;;;3.70;99.90;;;4.41;82.24;101721.06;5085646;28;20211;-69
2020/12/20 09:50:57;;;;;;;31.13;10.93;;;3.80;99.90;;;4.45;81.97;101717.63;5070240;28;20216;-69
2020/12/20 09:53:23;;;;;;;26.47;10.63;;;3.80;99.90;;;4.47;82.06;101713.31;5085448;28;20204;-69
2020/12/20 09:55:49;;;;;;;26.70;10.67;;;3.80;99.90;;;4.50;81.82;101720.22;5070556;28;20188;-69
2020/12/20 09:58:16;;;;;;;26.57;10.20;;;3.90;99.90;;;4.53;81.58;101715.94;5069869;28;20603;-69
2020/12/20 10:00:44;;;;;;;24.65;10.32;;;3.90;99.90;;;4.59;81.67;101707.28;5070527;28;20336;-69
2020/12/20 10:03:12;;;;;;;27.57;10.53;;;4.00;99.90;;;4.66;81.73;101707.31;5069352;28;20184;-69
2020/12/20 10:05:42;;;;;;;28.48;10.85;;;4.10;99.90;;;4.78;81.66;101717.72;5070263;28;20286;-69
2020/12/20 10:08:10;;;;;;;27.37;10.50;;;4.20;99.90;;;4.86;80.93;101718.59;5070088;28;20562;-69
2020/12/20 10:10:36;;;;;;;27.20;10.50;;;4.30;99.90;;;4.96;81.04;101720.34;5070438;28;20246;-69
2020/12/20 10:13:03;;;;;;;22.97;9.97;;;4.40;99.90;;;5.01;80.32;101718.63;5070348;28;20218;-70
2020/12/20 10:15:29;;;;;;;27.73;9.80;;;4.40;99.90;;;5.05;80.01;101724.69;5070232;28;20597;-69
2020/12/20 10:17:58;;;;;;;21.45;9.25;;;4.50;99.90;;;5.08;80.00;101707.41;5070351;28;20188;-69
2020/12/20 10:20:24;;;;;;;24.13;10.32;;;4.50;99.90;;;5.14;79.75;101717.75;5068961;28;20196;-69
2020/12/20 10:22:51;;;;;;;26.42;11.27;;;4.60;99.90;;;5.22;79.62;101724.69;5070196;28;20298;-69
2020/12/20 10:25:18;;;;;;;22.85;9.82;;;4.70;99.90;;;5.26;79.38;101727.28;5085985;28;20608;-69
2020/12/20 10:27:44;;;;;;;21.13;9.55;;;4.80;99.90;;;5.30;78.89;101710.00;5070283;28;20192;-69
2020/12/20 10:30:10;;;;;;;23.75;9.25;;;4.80;99.90;;;5.36;78.89;101707.41;5069970;28;20188;-69
2020/12/20 10:32:37;;;;;;;24.27;10.35;;;4.80;99.90;;;5.40;78.92;101724.69;5074081;28;20204;-69